Cloverdale, Illinois
Current Conditions -  °F | °C
As of 10:52 PM on Sunday 21 Dec 2014 (Local Time) from KDPA Reporting Station
Broken Clouds Broken Clouds  
Wind Chill: 24°   Ceiling: 3000
Heat Index: 33°   Visibility: 7mi
Dew Point: 28°   Wind: 13mph
Humidity: 82%   Direction: 150°SSE
Pressure: 30.01"   Gusts: NA
Location:  41.9753°N, 88.1977°W
Report Text: KDPA 220452Z 15011KT 7SM BKN030 01/M02 A3001 RMK AO2 SLP170 T00061022
Loading
Personal Weather Stations






























Interactive Weather Map New forecast layout! Learn more

10-Day Weather Forecast

Advertisements
Track Severe Weather on mobile